Time;durP1;ratioP1;P1;durP2;ratioP2;P2;SDS_P1;SDS_P2;PMS_P1;PMS_P2;Temp;Humidity;BMP_temperature;BMP_pressure;BME280_temperature;BME280_humidity;BME280_pressure;Samples;Min_cycle;Max_cycle;Signal;HPM_P1;HPM_P2
2021/12/10 00:01:50;;;;;;;27.92;9.05;;;;;;;;;;5060217;28;20078;-79
2021/12/10 00:04:18;;;;;;;22.83;9.73;;;;;;;;;;5036736;28;20057;-78
2021/12/10 00:06:49;;;;;;;26.13;9.57;;;;;;;;;;5051562;28;20508;-78
2021/12/10 00:09:22;;;;;;;27.45;10.27;;;;;;;;;;5045523;28;20066;-79
2021/12/10 00:11:53;;;;;;;24.73;9.73;;;;;;;;;;5051185;28;20112;-79
2021/12/10 00:14:20;;;;;;;27.27;9.27;;;;;;;;;;5050244;28;20053;-78
2021/12/10 00:16:46;;;;;;;33.72;9.98;;;;;;;;;;5043642;28;20882;-79
2021/12/10 00:19:31;;;;;;;23.27;9.70;;;;;;;;;;5052487;28;20073;-78
2021/12/10 00:21:59;;;;;;;26.77;9.52;;;;;;;;;;5045570;28;20049;-79
2021/12/10 00:24:28;;;;;;;30.58;11.15;;;;;;;;;;5049305;28;20085;-79
2021/12/10 00:26:56;;;;;;;25.05;9.43;;;;;;;;;;5050839;28;20175;-79
2021/12/10 00:29:24;;;;;;;32.00;10.00;;;;;;;;;;5051739;28;20099;-79
2021/12/10 00:31:54;;;;;;;27.38;10.55;;;;;;;;;;5042236;28;20054;-80
2021/12/10 00:34:41;;;;;;;31.98;11.38;;;;;;;;;;5046492;28;20053;-78
2021/12/10 00:37:09;;;;;;;32.20;11.10;;;;;;;;;;5048247;28;20057;-79
2021/12/10 00:39:40;;;;;;;29.90;11.10;;;;;;;;;;5045373;28;20081;-79
2021/12/10 00:42:09;;;;;;;27.23;9.80;;;;;;;;;;5042284;28;20099;-78
2021/12/10 00:44:35;;;;;;;34.17;11.73;;;;;;;;;;5044690;28;20054;-79
2021/12/10 00:47:02;;;;;;;28.33;10.77;;;;;;;;;;5050978;28;20073;-80
2021/12/10 00:49:29;;;;;;;26.38;10.88;;;;;;;;;;5050526;28;20471;-78
2021/12/10 00:51:55;;;;;;;27.95;11.50;;;;;;;;;;5035987;28;20050;-79
2021/12/10 00:54:22;;;;;;;29.85;12.38;;;;;;;;;;5050955;28;20123;-79
2021/12/10 00:56:49;;;;;;;24.95;10.45;;;;;;;;;;5057982;28;20512;-79
2021/12/10 00:59:17;;;;;;;27.42;11.65;;;;;;;;;;5032982;28;20124;-77
2021/12/10 01:01:44;;;;;;;27.27;12.07;;;;;;;;;;5041194;28;20057;-79
2021/12/10 01:04:13;;;;;;;25.60;11.50;;;;;;;;;;5044438;28;20057;-79
2021/12/10 01:06:41;;;;;;;24.10;10.73;;;;;;;;;;5046386;28;20069;-79
2021/12/10 01:09:11;;;;;;;21.25;11.00;;;;;;;;;;5051438;28;20053;-78
2021/12/10 01:11:40;;;;;;;34.08;12.57;;;;;;;;;;5049563;28;20084;-78
2021/12/10 01:14:19;;;;;;;28.40;11.10;;;;;;;;;;5050534;28;20084;-78
2021/12/10 01:27:32;;;;;;;27.23;11.73;;;;;;;;;;5048099;28;20058;-78
2021/12/10 01:30:01;;;;;;;24.80;10.52;;;;;;;;;;5046226;28;20112;-79
2021/12/10 01:32:30;;;;;;;26.48;10.23;;;;;;;;;;5042363;28;20041;-79
2021/12/10 01:34:57;;;;;;;23.40;11.15;;;;;;;;;;5046500;28;20084;-79
2021/12/10 01:37:24;;;;;;;25.48;10.32;;;;;;;;;;5040519;28;20907;-79
2021/12/10 01:39:52;;;;;;;23.85;10.65;;;;;;;;;;5037602;28;20053;-78
2021/12/10 01:44:47;;;;;;;21.25;9.55;;;;;;;;;;5051163;28;20072;-78
2021/12/10 01:47:15;;;;;;;20.35;9.75;;;;;;;;;;5050214;28;20100;-77
2021/12/10 01:49:43;;;;;;;27.38;10.13;;;;;;;;;;5050818;28;20076;-78
2021/12/10 01:52:11;;;;;;;19.45;9.50;;;;;;;;;;5041003;28;20113;-79
2021/12/10 01:54:39;;;;;;;17.50;8.95;;;;;;;;;;5042302;28;20053;-79
2021/12/10 01:57:07;;;;;;;25.83;9.27;;;;;;;;;;5043858;28;20600;-79
2021/12/10 01:59:34;;;;;;;22.80;9.32;;;;;;;;;;5050013;28;20563;-79
2021/12/10 02:02:03;;;;;;;23.67;9.10;;;;;;;;;;5048924;28;20056;-79
2021/12/10 02:04:32;;;;;;;20.95;9.23;;;;;;;;;;5049521;28;20057;-79
2021/12/10 02:07:00;;;;;;;20.80;10.00;;;;;;;;;;5050133;28;20511;-78
2021/12/10 02:09:26;;;;;;;26.02;9.95;;;;;;;;;;5048998;28;20050;-79
2021/12/10 02:11:53;;;;;;;22.20;9.73;;;;;;;;;;5042345;28;20076;-79
2021/12/10 02:14:20;;;;;;;19.85;9.05;;;;;;;;;;5050289;28;20489;-79
2021/12/10 02:16:47;;;;;;;19.80;8.95;;;;;;;;;;5050756;28;20054;-79
2021/12/10 02:19:13;;;;;;;18.48;8.25;;;;;;;;;;5046540;28;20045;-77
2021/12/10 02:21:40;;;;;;;17.88;8.13;;;;;;;;;;5049640;28;20064;-79
2021/12/10 02:24:07;;;;;;;17.05;8.20;;;;;;;;;;5049102;28;20072;-78
2021/12/10 02:26:36;;;;;;;27.08;8.60;;;;;;;;;;5049882;28;20057;-79
2021/12/10 02:29:04;;;;;;;16.33;8.38;;;;;;;;;;5042068;28;20092;-79
2021/12/10 02:31:30;;;;;;;19.40;7.80;;;;;;;;;;5039893;28;20054;-79
2021/12/10 02:33:57;;;;;;;17.60;7.95;;;;;;;;;;5044809;28;20158;-79
2021/12/10 02:36:24;;;;;;;23.85;8.23;;;;;;;;;;5046790;28;20057;-77
2021/12/10 02:38:51;;;;;;;19.33;7.90;;;;;;;;;;5039144;28;20112;-78
2021/12/10 02:41:19;;;;;;;17.40;7.60;;;;;;;;;;5049391;28;20085;-79
2021/12/10 02:43:47;;;;;;;14.55;7.28;;;;;;;;;;5050111;28;20103;-79
2021/12/10 02:46:13;;;;;;;18.05;7.93;;;;;;;;;;5048828;28;20115;-79
2021/12/10 02:48:40;;;;;;;19.60;7.75;;;;;;;;;;5031619;28;20096;-79
2021/12/10 02:51:08;;;;;;;20.52;7.68;;;;;;;;;;5035225;28;20881;-79
2021/12/10 02:53:40;;;;;;;16.80;6.82;;;;;;;;;;5049670;28;20088;-79
2021/12/10 02:56:09;;;;;;;18.98;7.28;;;;;;;;;;5052750;28;20053;-79
2021/12/10 02:58:36;;;;;;;17.15;6.85;;;;;;;;;;5052790;28;20421;-79
2021/12/10 03:01:07;;;;;;;15.90;6.70;;;;;;;;;;5045923;28;20101;-79
2021/12/10 03:03:35;;;;;;;17.65;6.97;;;;;;;;;;5033779;28;20053;-79
2021/12/10 03:06:08;;;;;;;17.40;7.07;;;;;;;;;;5048007;28;20053;-78
2021/12/10 03:08:35;;;;;;;16.25;7.22;;;;;;;;;;5035707;28;20080;-79
2021/12/10 03:11:02;;;;;;;17.00;7.28;;;;;;;;;;5042074;28;20140;-78
2021/12/10 03:13:28;;;;;;;16.27;7.70;;;;;;;;;;5059066;28;20041;-79
2021/12/10 03:15:55;;;;;;;19.65;7.07;;;;;;;;;;5044871;28;20181;-79
2021/12/10 03:18:21;;;;;;;18.02;7.32;;;;;;;;;;5047889;28;20073;-78
2021/12/10 03:20:48;;;;;;;17.38;6.78;;;;;;;;;;5050767;28;20057;-79
2021/12/10 03:23:14;;;;;;;17.75;7.40;;;;;;;;;;5035917;28;20091;-78
2021/12/10 03:25:41;;;;;;;12.40;5.70;;;;;;;;;;5050263;28;20136;-79
2021/12/10 03:28:08;;;;;;;13.82;5.45;;;;;;;;;;5048111;28;20501;-80
2021/12/10 03:30:39;;;;;;;15.48;5.80;;;;;;;;;;5047424;28;20818;-79
2021/12/10 03:33:05;;;;;;;15.10;5.20;;;;;;;;;;5052229;28;20056;-80
2021/12/10 03:35:33;;;;;;;19.05;6.30;;;;;;;;;;5050445;28;20053;-79
2021/12/10 03:38:01;;;;;;;13.90;4.95;;;;;;;;;;5043032;28;20564;-79
2021/12/10 03:40:28;;;;;;;10.40;4.30;;;;;;;;;;5040459;28;20099;-78
2021/12/10 03:42:58;;;;;;;10.57;4.07;;;;;;;;;;5043156;28;20053;-78
2021/12/10 03:45:29;;;;;;;13.65;4.13;;;;;;;;;;5051410;28;20061;-79
2021/12/10 03:47:56;;;;;;;11.05;5.15;;;;;;;;;;5043675;28;20066;-79
2021/12/10 03:50:25;;;;;;;8.15;4.03;;;;;;;;;;5053852;28;20080;-79
2021/12/10 03:52:51;;;;;;;10.48;3.90;;;;;;;;;;5043934;28;20060;-78
2021/12/10 03:55:18;;;;;;;13.30;4.13;;;;;;;;;;5049267;28;20554;-77
2021/12/10 03:57:46;;;;;;;12.85;4.32;;;;;;;;;;5037882;28;20559;-79
2021/12/10 04:00:13;;;;;;;12.05;4.40;;;;;;;;;;5031539;28;20104;-77
2021/12/10 04:02:40;;;;;;;10.18;4.03;;;;;;;;;;5037819;28;20057;-77
2021/12/10 04:05:07;;;;;;;15.90;4.38;;;;;;;;;;5045926;28;20956;-78
2021/12/10 04:07:33;;;;;;;11.40;4.53;;;;;;;;;;5038422;28;20104;-79
2021/12/10 04:09:59;;;;;;;12.05;4.45;;;;;;;;;;5041707;28;20482;-79
2021/12/10 04:12:26;;;;;;;14.43;4.57;;;;;;;;;;5052350;28;20033;-79
2021/12/10 04:14:52;;;;;;;7.97;3.90;;;;;;;;;;5052082;28;20085;-79
2021/12/10 04:17:21;;;;;;;17.85;3.65;;;;;;;;;;5034021;28;20089;-78
2021/12/10 04:19:50;;;;;;;9.63;3.63;;;;;;;;;;5041069;28;20548;-77
2021/12/10 04:22:17;;;;;;;16.40;4.03;;;;;;;;;;5050056;28;20127;-79
2021/12/10 04:24:44;;;;;;;9.60;3.40;;;;;;;;;;5041623;28;20173;-78
2021/12/10 04:27:11;;;;;;;10.88;3.97;;;;;;;;;;5050655;28;20131;-79
2021/12/10 04:29:37;;;;;;;9.40;3.72;;;;;;;;;;5047316;28;20095;-78
2021/12/10 04:32:05;;;;;;;12.18;3.92;;;;;;;;;;5041956;28;20061;-79
2021/12/10 04:34:31;;;;;;;11.70;3.85;;;;;;;;;;5047663;28;20092;-79
2021/12/10 04:36:59;;;;;;;11.23;4.18;;;;;;;;;;5045602;28;20192;-78
2021/12/10 04:39:26;;;;;;;8.55;3.30;;;;;;;;;;5048482;28;20046;-79
2021/12/10 04:41:53;;;;;;;11.98;3.30;;;;;;;;;;5048642;28;20068;-79
2021/12/10 04:44:19;;;;;;;10.02;3.05;;;;;;;;;;5049076;28;20050;-79
2021/12/10 04:46:45;;;;;;;8.00;3.10;;;;;;;;;;5042732;28;20084;-79
2021/12/10 04:49:13;;;;;;;12.07;3.33;;;;;;;;;;5050263;28;20141;-79
2021/12/10 04:51:42;;;;;;;8.95;3.35;;;;;;;;;;5044955;28;20046;-79
2021/12/10 04:54:09;;;;;;;9.00;3.63;;;;;;;;;;5034766;28;20058;-79
2021/12/10 04:56:36;;;;;;;7.35;3.50;;;;;;;;;;5051094;28;20155;-79
2021/12/10 04:59:04;;;;;;;12.38;3.58;;;;;;;;;;5051435;28;20512;-78
2021/12/10 05:01:31;;;;;;;10.38;3.13;;;;;;;;;;5040168;28;20077;-80
2021/12/10 05:03:57;;;;;;;8.95;3.42;;;;;;;;;;5034913;28;20556;-78
2021/12/10 05:06:24;;;;;;;10.30;3.85;;;;;;;;;;5046699;28;20073;-79
2021/12/10 05:08:50;;;;;;;9.98;3.10;;;;;;;;;;5046133;28;20082;-80
2021/12/10 05:11:17;;;;;;;10.63;3.40;;;;;;;;;;5044108;28;20092;-78
2021/12/10 05:13:44;;;;;;;7.30;2.90;;;;;;;;;;5046257;28;20081;-80
2021/12/10 05:16:11;;;;;;;8.40;3.03;;;;;;;;;;5038594;28;20115;-80
2021/12/10 05:18:40;;;;;;;9.45;3.38;;;;;;;;;;5043332;28;20104;-80
2021/12/10 05:21:08;;;;;;;11.00;3.03;;;;;;;;;;5050406;28;20921;-79
2021/12/10 05:23:35;;;;;;;9.73;3.40;;;;;;;;;;5043776;28;20054;-79
2021/12/10 05:26:01;;;;;;;8.32;3.42;;;;;;;;;;5041672;28;20072;-79
2021/12/10 05:28:28;;;;;;;8.48;3.20;;;;;;;;;;5044668;28;20795;-80
2021/12/10 05:30:56;;;;;;;9.65;3.00;;;;;;;;;;5043337;28;20551;-80
2021/12/10 05:33:24;;;;;;;13.00;2.97;;;;;;;;;;5045240;28;20046;-79
2021/12/10 05:35:51;;;;;;;7.03;2.47;;;;;;;;;;5050068;28;20489;-80
2021/12/10 05:38:19;;;;;;;7.68;2.38;;;;;;;;;;5050904;28;20055;-78
2021/12/10 05:40:46;;;;;;;8.52;2.80;;;;;;;;;;5045888;28;20069;-78
2021/12/10 05:43:12;;;;;;;12.73;2.85;;;;;;;;;;5043789;28;20097;-78
2021/12/10 05:45:41;;;;;;;10.52;3.10;;;;;;;;;;5051145;28;20053;-80
2021/12/10 05:48:08;;;;;;;9.35;2.63;;;;;;;;;;5048082;28;20086;-78
2021/12/10 05:50:35;;;;;;;8.20;2.67;;;;;;;;;;5031473;28;20038;-79
2021/12/10 05:53:01;;;;;;;9.40;3.10;;;;;;;;;;5031211;28;20050;-79
2021/12/10 05:55:27;;;;;;;8.93;2.83;;;;;;;;;;5044919;28;20111;-79
2021/12/10 05:57:54;;;;;;;8.45;2.80;;;;;;;;;;5049260;28;20563;-78
2021/12/10 06:00:23;;;;;;;13.23;3.35;;;;;;;;;;5052003;28;20088;-80
2021/12/10 06:02:49;;;;;;;7.82;3.03;;;;;;;;;;5048810;28;20072;-78
2021/12/10 06:05:16;;;;;;;7.13;2.80;;;;;;;;;;5044385;28;20046;-78
2021/12/10 06:07:43;;;;;;;10.52;3.22;;;;;;;;;;5030161;28;20050;-78
2021/12/10 06:10:10;;;;;;;13.13;3.08;;;;;;;;;;5044327;28;20520;-78
2021/12/10 06:12:37;;;;;;;7.03;3.10;;;;;;;;;;5039192;28;20109;-78
2021/12/10 06:15:05;;;;;;;12.40;3.10;;;;;;;;;;5036329;28;20208;-77
2021/12/10 06:17:32;;;;;;;6.68;3.17;;;;;;;;;;5042739;28;20497;-78
2021/12/10 06:19:59;;;;;;;8.18;3.08;;;;;;;;;;5049097;28;20598;-78
2021/12/10 06:22:26;;;;;;;12.30;3.67;;;;;;;;;;5036607;28;20078;-78
2021/12/10 06:24:52;;;;;;;7.85;3.13;;;;;;;;;;5046458;28;20155;-78
2021/12/10 06:27:18;;;;;;;12.38;3.58;;;;;;;;;;5038064;28;20576;-79
2021/12/10 06:29:45;;;;;;;9.30;3.33;;;;;;;;;;5037426;28;20092;-78
2021/12/10 06:32:11;;;;;;;9.65;3.50;;;;;;;;;;5045567;28;20050;-78
2021/12/10 06:34:38;;;;;;;9.32;3.15;;;;;;;;;;5051244;28;20053;-78
2021/12/10 06:37:05;;;;;;;11.25;4.20;;;;;;;;;;5052044;28;20053;-78
2021/12/10 06:39:31;;;;;;;10.38;3.80;;;;;;;;;;5035707;28;20053;-78
2021/12/10 06:41:58;;;;;;;8.98;3.50;;;;;;;;;;5040680;28;20053;-78
2021/12/10 06:44:25;;;;;;;11.73;3.55;;;;;;;;;;5050516;28;20139;-79
2021/12/10 06:46:51;;;;;;;13.50;4.07;;;;;;;;;;5048110;28;20041;-79
2021/12/10 06:49:18;;;;;;;11.23;3.65;;;;;;;;;;5051741;28;20057;-80
2021/12/10 06:51:45;;;;;;;13.15;3.53;;;;;;;;;;5050476;28;20053;-80
2021/12/10 06:54:11;;;;;;;10.02;3.35;;;;;;;;;;5050724;28;20175;-79
2021/12/10 06:56:38;;;;;;;9.82;3.60;;;;;;;;;;5049098;28;20108;-79
2021/12/10 06:59:06;;;;;;;12.07;3.60;;;;;;;;;;5044314;28;20080;-81
2021/12/10 07:01:34;;;;;;;12.88;3.58;;;;;;;;;;5052881;28;20089;-79
2021/12/10 07:04:01;;;;;;;9.95;3.50;;;;;;;;;;5036244;28;20076;-80
2021/12/10 07:06:28;;;;;;;9.23;3.75;;;;;;;;;;5049251;28;20097;-79
2021/12/10 07:08:55;;;;;;;14.60;4.05;;;;;;;;;;5041361;28;20591;-79
2021/12/10 07:11:22;;;;;;;11.20;3.65;;;;;;;;;;5054201;28;20100;-79
2021/12/10 07:13:51;;;;;;;15.25;3.65;;;;;;;;;;5049724;28;20053;-79
2021/12/10 07:16:18;;;;;;;9.98;3.90;;;;;;;;;;5050575;28;20583;-80
2021/12/10 07:18:44;;;;;;;8.00;3.20;;;;;;;;;;5037229;28;20060;-82
2021/12/10 07:21:11;;;;;;;11.00;3.55;;;;;;;;;;5048545;28;20081;-82
2021/12/10 07:23:38;;;;;;;8.73;3.63;;;;;;;;;;5051271;28;21050;-80
2021/12/10 07:26:05;;;;;;;11.63;3.60;;;;;;;;;;5046369;28;20058;-79
2021/12/10 07:28:31;;;;;;;11.38;3.53;;;;;;;;;;5051808;28;20495;-79
2021/12/10 07:30:58;;;;;;;11.00;3.58;;;;;;;;;;5042848;28;20104;-80
2021/12/10 07:33:25;;;;;;;11.88;4.15;;;;;;;;;;5049822;28;20512;-79
2021/12/10 07:35:51;;;;;;;10.00;3.35;;;;;;;;;;5050755;28;20056;-78
2021/12/10 07:38:18;;;;;;;12.32;3.55;;;;;;;;;;5047558;28;20648;-79
2021/12/10 07:40:45;;;;;;;12.65;4.13;;;;;;;;;;5033113;28;20108;-79
2021/12/10 07:43:16;;;;;;;12.65;3.20;;;;;;;;;;5041567;28;20108;-80
2021/12/10 07:45:46;;;;;;;12.52;3.53;;;;;;;;;;5050011;28;20159;-78
2021/12/10 07:48:16;;;;;;;9.70;3.40;;;;;;;;;;5050274;28;20049;-79
2021/12/10 07:50:44;;;;;;;12.07;3.58;;;;;;;;;;5033613;28;20050;-79
2021/12/10 07:53:10;;;;;;;10.60;3.20;;;;;;;;;;5049274;28;21032;-79
2021/12/10 07:55:38;;;;;;;9.40;2.97;;;;;;;;;;5034282;28;20057;-78
2021/12/10 07:58:06;;;;;;;9.18;3.35;;;;;;;;;;5045839;28;20053;-79
2021/12/10 08:00:33;;;;;;;13.95;3.35;;;;;;;;;;5048127;28;20100;-78
2021/12/10 08:03:00;;;;;;;12.02;3.13;;;;;;;;;;5045963;28;20049;-77
2021/12/10 08:05:27;;;;;;;12.27;4.55;;;;;;;;;;5054240;28;20053;-77
2021/12/10 08:07:58;;;;;;;;;;;;;;;;;;5043975;28;20162;-77
2021/12/10 08:10:25;;;;;;;11.15;3.30;;;;;;;;;;5032632;28;48311;-77
2021/12/10 08:12:52;;;;;;;16.88;3.33;;;;;;;;;;5045597;28;20153;-77
2021/12/10 08:15:18;;;;;;;12.48;3.30;;;;;;;;;;5048978;28;20054;-77
2021/12/10 08:17:45;;;;;;;13.20;3.35;;;;;;;;;;5041232;28;20497;-78
2021/12/10 08:20:13;;;;;;;11.75;3.42;;;;;;;;;;5045306;28;20103;-76
2021/12/10 08:22:39;;;;;;;12.95;3.92;;;;;;;;;;5042972;28;22779;-76
2021/12/10 08:25:06;;;;;;;7.85;3.65;;;;;;;;;;5051051;28;20116;-77
2021/12/10 08:27:38;;;;;;;13.40;3.63;;;;;;;;;;5047892;28;20084;-77
2021/12/10 08:30:06;;;;;;;11.98;2.83;;;;;;;;;;5043951;28;20053;-77
2021/12/10 08:32:36;;;;;;;13.27;3.58;;;;;;;;;;5039660;28;20145;-77
2021/12/10 08:35:03;;;;;;;10.95;3.50;;;;;;;;;;5033162;28;20085;-76
2021/12/10 08:37:30;;;;;;;11.02;3.50;;;;;;;;;;5044443;28;20521;-77
2021/12/10 08:40:01;;;;;;;7.47;2.90;;;;;;;;;;5041793;28;20528;-77
2021/12/10 08:42:27;;;;;;;11.82;3.50;;;;;;;;;;5038875;28;20050;-77
2021/12/10 08:44:54;;;;;;;15.32;3.97;;;;;;;;;;5038237;28;20057;-76
2021/12/10 08:47:20;;;;;;;11.40;3.50;;;;;;;;;;5043592;28;20579;-76
2021/12/10 08:49:47;;;;;;;13.05;3.90;;;;;;;;;;5044314;28;20133;-76
2021/12/10 08:52:14;;;;;;;11.02;4.03;;;;;;;;;;5040322;28;20107;-76
2021/12/10 08:54:41;;;;;;;12.95;3.60;;;;;;;;;;5063141;28;20139;-77
2021/12/10 08:57:11;;;;;;;8.48;3.80;;;;;;;;;;5037376;28;20054;-76
2021/12/10 08:59:38;;;;;;;10.43;3.35;;;;;;;;;;5042036;28;20057;-77
2021/12/10 09:02:07;;;;;;;14.52;4.03;;;;;;;;;;5040594;28;20069;-76
2021/12/10 09:04:33;;;;;;;14.05;4.05;;;;;;;;;;5042355;28;20057;-77
2021/12/10 09:07:02;;;;;;;13.23;4.20;;;;;;;;;;5040575;28;20112;-76
2021/12/10 09:09:30;;;;;;;10.35;4.13;;;;;;;;;;5049595;28;20582;-77
2021/12/10 09:11:58;;;;;;;10.32;4.30;;;;;;;;;;5049571;28;20085;-78
2021/12/10 09:14:29;;;;;;;13.50;4.90;;;;;;;;;;5042763;28;20073;-78
2021/12/10 09:16:56;;;;;;;;;;;;;;;;;;5039115;28;20667;-77
2021/12/10 09:19:22;;;;;;;10.57;3.70;;;;;;;;;;5039550;28;46126;-77
2021/12/10 09:21:48;;;;;;;9.75;3.67;;;;;;;;;;5041265;28;20139;-76
2021/12/10 09:24:17;;;;;;;10.48;3.85;;;;;;;;;;5030839;28;20062;-77
2021/12/10 09:26:45;;;;;;;11.32;3.55;;;;;;;;;;5040869;28;20049;-76
2021/12/10 09:29:12;;;;;;;8.98;3.80;;;;;;;;;;5037510;28;20053;-77
2021/12/10 09:31:42;;;;;;;11.63;4.20;;;;;;;;;;5035768;28;20129;-77
2021/12/10 09:34:10;;;;;;;11.07;4.00;;;;;;;;;;5035779;28;20125;-77
2021/12/10 09:36:36;;;;;;;12.20;4.05;;;;;;;;;;5031738;28;20058;-76
2021/12/10 09:39:05;;;;;;;10.73;3.30;;;;;;;;;;5028243;28;20085;-77
2021/12/10 09:41:31;;;;;;;15.55;3.85;;;;;;;;;;5033859;28;20112;-77
2021/12/10 09:43:57;;;;;;;12.18;4.10;;;;;;;;;;5040468;28;20069;-77
2021/12/10 09:46:24;;;;;;;12.32;4.20;;;;;;;;;;5045237;28;20103;-77
2021/12/10 09:48:50;;;;;;;11.05;3.38;;;;;;;;;;5042714;28;20045;-77
2021/12/10 09:51:18;;;;;;;16.98;3.50;;;;;;;;;;5043214;28;20081;-77
2021/12/10 09:53:46;;;;;;;10.88;3.60;;;;;;;;;;5045699;28;20072;-78
2021/12/10 09:56:14;;;;;;;12.20;3.88;;;;;;;;;;5046943;28;20542;-77
2021/12/10 09:58:40;;;;;;;10.57;3.55;;;;;;;;;;5037864;28;20084;-77
2021/12/10 10:01:10;;;;;;;8.35;3.60;;;;;;;;;;5041322;28;20053;-77
2021/12/10 10:03:38;;;;;;;18.90;4.63;;;;;;;;;;5044055;28;20056;-78
2021/12/10 10:06:05;;;;;;;10.93;3.63;;;;;;;;;;5051737;28;20064;-77
2021/12/10 10:08:32;;;;;;;10.95;3.70;;;;;;;;;;5044619;28;20099;-77
2021/12/10 10:11:06;;;;;;;12.57;4.40;;;;;;;;;;5046219;28;20053;-77
2021/12/10 10:13:34;;;;;;;20.50;3.80;;;;;;;;;;5046515;28;20057;-77
2021/12/10 10:16:01;;;;;;;13.60;4.40;;;;;;;;;;5045490;28;20160;-78
2021/12/10 10:18:29;;;;;;;12.18;3.50;;;;;;;;;;5044135;28;20082;-77
2021/12/10 10:20:57;;;;;;;12.10;4.22;;;;;;;;;;5037533;28;20078;-78
2021/12/10 10:23:24;;;;;;;11.60;4.75;;;;;;;;;;5037405;28;20089;-77
2021/12/10 10:25:52;;;;;;;14.40;4.35;;;;;;;;;;5043045;28;20089;-76
2021/12/10 10:28:19;;;;;;;15.50;3.92;;;;;;;;;;5033095;28;20137;-77
2021/12/10 10:30:58;;;;;;;12.60;3.90;;;;;;;;;;5049060;28;20505;-77
2021/12/10 10:33:26;;;;;;;10.82;4.32;;;;;;;;;;5040564;28;20053;-77
2021/12/10 10:35:54;;;;;;;13.32;3.70;;;;;;;;;;5042433;28;20054;-75
2021/12/10 10:38:21;;;;;;;14.40;3.90;;;;;;;;;;5044152;28;20054;-77
2021/12/10 10:40:54;;;;;;;9.25;3.72;;;;;;;;;;5046285;28;20062;-77
2021/12/10 10:43:21;;;;;;;8.93;3.58;;;;;;;;;;5041260;28;20061;-78
2021/12/10 10:45:48;;;;;;;12.57;3.45;;;;;;;;;;5039760;28;20619;-76
2021/12/10 10:48:16;;;;;;;15.23;4.00;;;;;;;;;;5040461;28;20096;-78
2021/12/10 10:50:48;;;;;;;13.98;3.75;;;;;;;;;;5037371;28;20054;-76
2021/12/10 10:53:16;;;;;;;12.30;3.78;;;;;;;;;;5041638;28;20113;-77
2021/12/10 10:55:49;;;;;;;11.43;4.28;;;;;;;;;;5033934;28;20061;-76
2021/12/10 10:58:16;;;;;;;7.88;4.03;;;;;;;;;;5035208;28;20060;-77
2021/12/10 11:00:56;;;;;;;11.15;4.35;;;;;;;;;;5040600;28;20054;-77
2021/12/10 11:03:46;;;;;;;11.55;3.42;;;;;;;;;;5040565;28;20050;-77
2021/12/10 11:06:15;;;;;;;12.77;3.63;;;;;;;;;;5042778;28;20516;-77
2021/12/10 11:08:46;;;;;;;8.38;3.30;;;;;;;;;;5039873;28;20615;-76
2021/12/10 11:11:18;;;;;;;10.50;3.22;;;;;;;;;;5042543;28;20104;-77
2021/12/10 11:13:45;;;;;;;11.18;4.00;;;;;;;;;;5045292;28;20143;-77
2021/12/10 11:16:22;;;;;;;14.88;3.63;;;;;;;;;;5042690;28;20085;-77
2021/12/10 11:18:53;;;;;;;9.15;3.50;;;;;;;;;;5044522;28;20060;-77
2021/12/10 11:21:39;;;;;;;9.55;3.50;;;;;;;;;;5038979;28;20062;-77
2021/12/10 11:24:08;;;;;;;10.40;3.58;;;;;;;;;;5043423;28;20054;-78
2021/12/10 11:26:45;;;;;;;11.52;3.72;;;;;;;;;;5044501;28;20605;-77
2021/12/10 11:29:30;;;;;;;9.60;3.28;;;;;;;;;;5046240;28;20061;-77
2021/12/10 11:31:58;;;;;;;9.52;3.65;;;;;;;;;;5049106;28;20049;-78
2021/12/10 11:34:41;;;;;;;15.07;4.70;;;;;;;;;;5043774;28;20069;-78
2021/12/10 11:37:09;;;;;;;8.48;3.50;;;;;;;;;;5042147;28;20578;-77
2021/12/10 11:39:47;;;;;;;13.52;3.78;;;;;;;;;;5052857;28;20061;-78
2021/12/10 11:42:34;;;;;;;9.30;3.15;;;;;;;;;;5053007;28;20135;-77
2021/12/10 11:45:29;;;;;;;14.10;3.30;;;;;;;;;;5051656;28;20045;-78
2021/12/10 11:48:06;;;;;;;9.27;3.42;;;;;;;;;;5031876;28;20054;-78
2021/12/10 11:50:34;;;;;;;11.68;3.53;;;;;;;;;;5033723;28;20053;-78
2021/12/10 11:53:03;;;;;;;9.55;3.60;;;;;;;;;;5051906;28;20104;-78
2021/12/10 11:55:32;;;;;;;9.88;3.38;;;;;;;;;;5050217;28;20103;-78
2021/12/10 11:57:58;;;;;;;13.00;3.58;;;;;;;;;;5053755;28;20065;-77
2021/12/10 12:00:29;;;;;;;8.75;3.20;;;;;;;;;;5065240;28;20053;-78
2021/12/10 12:03:00;;;;;;;12.85;3.53;;;;;;;;;;5045255;28;20613;-78
2021/12/10 12:05:32;;;;;;;13.80;4.00;;;;;;;;;;5038962;28;20109;-78
2021/12/10 12:08:04;;;;;;;11.25;3.88;;;;;;;;;;5032057;28;20144;-77
2021/12/10 12:10:38;;;;;;;21.35;5.90;;;;;;;;;;5035014;28;20063;-78
2021/12/10 12:13:23;;;;;;;15.13;5.28;;;;;;;;;;5047905;28;20057;-78
2021/12/10 12:16:10;;;;;;;16.27;3.80;;;;;;;;;;5051570;28;20103;-77
2021/12/10 12:18:38;;;;;;;10.43;2.92;;;;;;;;;;5032733;28;20599;-77
2021/12/10 12:21:55;;;;;;;12.45;3.22;;;;;;;;;;5043443;28;20045;-78
2021/12/10 12:27:08;;;;;;;17.95;3.70;;;;;;;;;;5052519;28;20050;-78
2021/12/10 12:29:56;;;;;;;11.98;3.53;;;;;;;;;;5051278;28;20056;-77
2021/12/10 12:32:31;;;;;;;19.58;3.92;;;;;;;;;;5049972;28;20069;-78
2021/12/10 12:35:11;;;;;;;13.90;3.20;;;;;;;;;;5068933;28;20056;-78
2021/12/10 12:37:38;;;;;;;12.05;3.30;;;;;;;;;;5062676;28;20891;-78
2021/12/10 12:40:24;;;;;;;8.77;2.88;;;;;;;;;;5049226;28;20064;-78
2021/12/10 12:42:51;;;;;;;7.57;3.15;;;;;;;;;;5047676;28;20044;-77
2021/12/10 12:45:19;;;;;;;6.88;2.72;;;;;;;;;;5045335;28;20874;-78
2021/12/10 12:48:09;;;;;;;7.30;2.85;;;;;;;;;;5044278;28;20053;-78
2021/12/10 12:50:44;;;;;;;7.50;3.60;;;;;;;;;;5050085;28;20058;-78
2021/12/10 12:53:16;;;;;;;13.02;3.05;;;;;;;;;;5040072;28;20068;-79
2021/12/10 12:55:49;;;;;;;7.75;2.50;;;;;;;;;;5031118;28;20058;-77
2021/12/10 12:58:20;;;;;;;9.55;2.70;;;;;;;;;;5043806;28;20053;-79
2021/12/10 13:01:09;;;;;;;10.25;2.72;;;;;;;;;;5044373;28;20060;-78
2021/12/10 13:03:40;;;;;;;10.23;2.88;;;;;;;;;;5045006;28;20058;-79
2021/12/10 13:06:30;;;;;;;13.55;3.35;;;;;;;;;;5044850;28;20053;-79
2021/12/10 13:09:11;;;;;;;15.63;2.87;;;;;;;;;;5048589;28;20057;-79
2021/12/10 13:11:48;;;;;;;9.68;2.78;;;;;;;;;;5046124;28;20862;-79
2021/12/10 13:14:18;;;;;;;10.45;3.28;;;;;;;;;;5045488;28;20053;-79
2021/12/10 13:16:47;;;;;;;9.00;2.80;;;;;;;;;;5049642;28;20104;-78
2021/12/10 13:19:16;;;;;;;7.28;2.63;;;;;;;;;;5049322;28;20093;-78
2021/12/10 13:21:58;;;;;;;9.75;3.30;;;;;;;;;;5044748;28;20080;-78
2021/12/10 13:24:24;;;;;;;9.35;3.20;;;;;;;;;;5035879;28;20049;-78
2021/12/10 13:26:51;;;;;;;9.60;3.22;;;;;;;;;;5047357;28;20061;-78
2021/12/10 13:29:17;;;;;;;9.50;3.28;;;;;;;;;;5048526;28;20042;-78
2021/12/10 13:31:44;;;;;;;7.90;2.38;;;;;;;;;;5045673;28;20045;-78
2021/12/10 13:34:10;;;;;;;14.80;2.55;;;;;;;;;;5051239;28;20045;-78
2021/12/10 13:36:41;;;;;;;5.78;2.55;;;;;;;;;;5048238;28;20149;-79
2021/12/10 13:39:10;;;;;;;11.35;3.17;;;;;;;;;;5040487;28;20537;-79
2021/12/10 13:41:37;;;;;;;11.93;3.05;;;;;;;;;;5050749;28;20128;-78
2021/12/10 13:44:08;;;;;;;14.50;3.78;;;;;;;;;;5049236;28;20104;-77
2021/12/10 13:46:43;;;;;;;14.63;4.70;;;;;;;;;;5030777;28;20136;-77
2021/12/10 13:49:21;;;;;;;13.38;5.15;;;;;;;;;;5046378;28;20053;-78
2021/12/10 13:51:52;;;;;;;11.68;4.90;;;;;;;;;;5041946;28;20127;-78
2021/12/10 13:54:22;;;;;;;14.15;4.72;;;;;;;;;;5043689;28;20125;-78
2021/12/10 13:56:54;;;;;;;11.15;4.85;;;;;;;;;;5038657;28;20053;-77
2021/12/10 13:59:25;;;;;;;14.65;3.75;;;;;;;;;;5049206;28;20926;-78
2021/12/10 14:01:53;;;;;;;7.43;3.00;;;;;;;;;;5047011;28;20108;-77
2021/12/10 14:04:22;;;;;;;9.82;3.30;;;;;;;;;;5037023;28;20056;-78
2021/12/10 14:06:52;;;;;;;10.68;3.75;;;;;;;;;;5045596;28;20057;-77
2021/12/10 14:09:38;;;;;;;10.23;3.40;;;;;;;;;;5044623;28;20101;-78
2021/12/10 14:12:13;;;;;;;8.85;2.92;;;;;;;;;;5046658;28;20524;-78
2021/12/10 14:14:56;;;;;;;11.93;3.35;;;;;;;;;;5048078;28;20088;-78
2021/12/10 14:17:25;;;;;;;16.35;3.60;;;;;;;;;;5042949;28;20084;-78
2021/12/10 14:20:19;;;;;;;10.30;3.60;;;;;;;;;;5045463;28;20059;-77
2021/12/10 14:23:08;;;;;;;10.05;3.75;;;;;;;;;;5044050;28;20098;-78
2021/12/10 14:25:56;;;;;;;11.55;3.60;;;;;;;;;;5044555;28;20535;-77
2021/12/10 14:28:45;;;;;;;8.48;3.53;;;;;;;;;;5040928;28;20128;-77
2021/12/10 14:31:37;;;;;;;11.70;3.03;;;;;;;;;;5042614;28;20068;-78
2021/12/10 14:34:08;;;;;;;13.60;3.78;;;;;;;;;;5048538;28;20595;-78
2021/12/10 14:36:34;;;;;;;9.70;3.10;;;;;;;;;;5038962;28;20045;-77
2021/12/10 14:39:02;;;;;;;13.40;3.35;;;;;;;;;;5047282;28;20100;-78
2021/12/10 14:41:49;;;;;;;10.60;3.33;;;;;;;;;;5048456;28;20526;-78
2021/12/10 14:44:23;;;;;;;13.38;3.60;;;;;;;;;;5041009;28;20070;-77
2021/12/10 14:46:52;;;;;;;12.73;3.30;;;;;;;;;;5046223;28;20133;-78
2021/12/10 14:49:42;;;;;;;8.68;3.25;;;;;;;;;;5050654;28;20057;-78
2021/12/10 14:52:31;;;;;;;12.43;4.27;;;;;;;;;;5051206;28;20053;-78
2021/12/10 14:55:21;;;;;;;7.90;3.33;;;;;;;;;;5034351;28;20061;-77
2021/12/10 14:58:12;;;;;;;14.52;3.70;;;;;;;;;;5032871;28;20493;-77
2021/12/10 15:01:04;;;;;;;7.20;2.88;;;;;;;;;;5045803;28;20057;-78
2021/12/10 15:03:52;;;;;;;10.23;3.65;;;;;;;;;;5048536;28;20424;-78
2021/12/10 15:06:52;;;;;;;14.60;4.07;;;;;;;;;;5043185;28;20053;-77